ESTA

Ängelholm-Helsingborg Airport

Ängelholm, Sweden
METAR ESTA 211420Z 09010KT CAVOK 20/04 Q1025
Observed Flight Rules
May-21 @ 14:20 UTC (25 minutes ago) Visual Flight Rules
Wind Visibility Clouds
90° at 10 knots 10,000+ meters
  • Clear skies
Temperatures Readings
Current 20°C / 68°F
Dewpoint 4°C / 39°F
Humidity 35%
Altimeter 30.27" Hg
Pressure 1025 hPa
Elevation 47
METAR ESTA 211420Z 09010KT CAVOK 20/04 Q1025
Observed Flight Rules
May-21 @ 14:20 UTC
(25 minutes ago)
VFR
Wind Visibility
90° at 10 knots 10,000+ meters
Clouds
  • Clear skies
Temperature Dewpoint
20°C / 68°F 4°C / 39°F
Humidity Altimeter Pressure
35% 30.27" Hg 1025 hPa